createdAt,value
2023-05-23T00:00:36.883Z,18.00
2023-05-23T00:02:39.892Z,15.20
2023-05-23T00:04:44.391Z,14.13
2023-05-23T00:06:47.352Z,13.30
2023-05-23T00:08:50.610Z,14.20
2023-05-23T00:10:53.540Z,16.03
2023-05-23T00:12:58.176Z,15.27
2023-05-23T00:15:01.383Z,15.40
2023-05-23T00:17:05.277Z,13.13
2023-05-23T00:19:08.310Z,14.60
2023-05-23T00:21:13.518Z,14.00
2023-05-23T00:23:19.068Z,13.77
2023-05-23T00:25:22.522Z,13.27
2023-05-23T00:27:25.294Z,11.63
2023-05-23T00:29:28.063Z,14.90
2023-05-23T00:31:31.610Z,14.77
2023-05-23T00:33:34.412Z,12.30
2023-05-23T00:35:37.171Z,13.53
2023-05-23T00:37:41.436Z,17.47
2023-05-23T00:39:44.206Z,12.47
2023-05-23T00:41:51.143Z,14.87
2023-05-23T00:43:54.868Z,14.43
2023-05-23T00:45:57.721Z,16.97
2023-05-23T00:48:01.084Z,14.27
2023-05-23T00:50:09.617Z,13.90
2023-05-23T00:52:12.461Z,15.27
2023-05-23T00:54:19.563Z,17.40
2023-05-23T00:56:22.561Z,15.90
2023-05-23T00:58:26.161Z,16.63
2023-05-23T01:00:30.288Z,18.50
2023-05-23T01:02:36.638Z,13.40
2023-05-23T01:04:40.104Z,14.73
2023-05-23T01:06:46.617Z,16.20
2023-05-23T01:08:49.389Z,13.87
2023-05-23T01:10:53.814Z,14.73
2023-05-23T01:13:05.628Z,21.10
2023-05-23T01:15:11.765Z,18.93
2023-05-23T01:17:18.126Z,18.53
2023-05-23T01:19:46.356Z,18.37
2023-05-23T01:21:55.070Z,15.90
2023-05-23T01:24:19.091Z,23.23
2023-05-23T01:26:35.000Z,19.30
2023-05-23T01:28:44.562Z,15.10
2023-05-23T01:30:49.178Z,18.83
2023-05-23T01:32:55.253Z,17.60
2023-05-23T01:34:59.060Z,15.07
2023-05-23T01:37:01.837Z,17.13
2023-05-23T01:39:04.694Z,17.07
2023-05-23T01:41:07.482Z,14.33
2023-05-23T01:43:10.485Z,15.30
2023-05-23T01:45:16.389Z,21.07
2023-05-23T01:47:19.596Z,15.30
2023-05-23T01:49:24.009Z,19.17
2023-05-23T01:51:27.343Z,22.60
2023-05-23T01:53:31.398Z,21.10
2023-05-23T01:55:34.760Z,20.20
2023-05-23T01:57:38.581Z,29.60
2023-05-23T01:59:41.398Z,19.53
2023-05-23T02:01:45.742Z,25.27
2023-05-23T02:03:48.575Z,23.10
2023-05-23T02:05:51.322Z,25.40
2023-05-23T02:07:54.051Z,20.07
2023-05-23T02:09:57.126Z,22.07
2023-05-23T02:12:00.580Z,22.07
2023-05-23T02:14:03.519Z,18.13
2023-05-23T02:16:06.646Z,19.87
2023-05-23T02:18:10.820Z,18.20
2023-05-23T02:20:14.452Z,19.90
2023-05-23T02:22:17.445Z,25.23
2023-05-23T02:24:20.824Z,22.47
2023-05-23T02:26:23.776Z,23.43
2023-05-23T02:28:26.550Z,19.60
2023-05-23T02:30:29.667Z,23.37
2023-05-23T02:32:32.492Z,24.17
2023-05-23T02:34:38.223Z,27.90
2023-05-23T02:36:40.948Z,24.50
2023-05-23T02:38:43.695Z,26.33
2023-05-23T02:40:46.400Z,28.40
2023-05-23T02:42:51.096Z,23.80
2023-05-23T02:44:53.864Z,27.43
2023-05-23T02:46:56.644Z,24.83
2023-05-23T02:48:58.490Z,32.10
2023-05-23T02:51:02.548Z,33.77
2023-05-23T02:53:05.346Z,30.20
2023-05-23T02:55:08.873Z,29.13
2023-05-23T02:57:11.658Z,33.63
2023-05-23T02:59:14.599Z,28.17
2023-05-23T03:01:18.112Z,34.93
2023-05-23T03:03:20.991Z,37.57
2023-05-23T03:05:23.890Z,35.70
2023-05-23T03:07:28.949Z,34.20
2023-05-23T03:09:32.249Z,38.70
2023-05-23T03:11:35.206Z,39.57
2023-05-23T03:13:38.053Z,38.47
2023-05-23T03:15:41.304Z,32.23
2023-05-23T03:17:44.289Z,35.67
2023-05-23T03:19:47.188Z,41.70
2023-05-23T03:21:52.362Z,30.97
2023-05-23T03:23:56.559Z,28.40
2023-05-23T03:25:59.923Z,28.40
2023-05-23T03:28:02.908Z,29.57
2023-05-23T03:30:06.744Z,33.13
2023-05-23T03:32:09.730Z,25.37
2023-05-23T03:34:13.132Z,22.47
2023-05-23T03:36:16.096Z,21.90
2023-05-23T03:38:18.960Z,22.47
2023-05-23T03:40:23.257Z,23.27
2023-05-23T03:42:26.173Z,22.23
2023-05-23T03:44:29.094Z,19.70
2023-05-23T03:46:32.432Z,18.23
2023-05-23T03:48:35.586Z,17.60
2023-05-23T03:50:38.453Z,17.30
2023-05-23T03:52:41.334Z,19.30
2023-05-23T03:54:44.224Z,17.80
2023-05-23T03:56:48.431Z,14.13
2023-05-23T03:58:51.325Z,15.97
2023-05-23T04:00:54.267Z,12.63
2023-05-23T04:02:57.475Z,14.97
2023-05-23T04:05:00.793Z,15.00
2023-05-23T04:07:05.765Z,15.40
2023-05-23T04:09:09.130Z,14.87
2023-05-23T04:11:12.065Z,15.63
2023-05-23T04:13:16.410Z,15.73
2023-05-23T04:15:21.638Z,18.83
2023-05-23T04:17:24.773Z,14.23
2023-05-23T04:19:27.808Z,15.60
2023-05-23T04:21:31.146Z,16.43
2023-05-23T04:23:33.935Z,13.63
2023-05-23T04:25:36.717Z,15.00
2023-05-23T04:27:40.736Z,13.10
2023-05-23T04:29:46.909Z,12.53
2023-05-23T04:31:49.744Z,14.87
2023-05-23T04:33:52.708Z,15.83
2023-05-23T04:35:56.222Z,20.80
2023-05-23T04:37:58.984Z,16.50
2023-05-23T04:40:01.774Z,13.37
2023-05-23T04:42:04.663Z,17.77
2023-05-23T04:44:07.440Z,14.83
2023-05-23T04:46:11.528Z,16.77
2023-05-23T04:48:17.093Z,15.13
2023-05-23T04:50:22.106Z,13.67
2023-05-23T04:52:25.530Z,15.60
2023-05-23T04:54:28.537Z,14.87
2023-05-23T04:56:31.376Z,14.43
2023-05-23T04:58:34.134Z,17.70
2023-05-23T05:00:37.327Z,13.97
2023-05-23T05:02:42.746Z,12.30
2023-05-23T05:04:45.600Z,13.43
2023-05-23T05:06:49.020Z,14.23
2023-05-23T05:08:51.930Z,14.33
2023-05-23T05:10:55.460Z,16.03
2023-05-23T05:12:58.331Z,14.07
2023-05-23T05:15:01.251Z,18.77
2023-05-23T05:17:04.459Z,13.53
2023-05-23T05:19:08.890Z,12.80
2023-05-23T05:21:11.686Z,15.03
2023-05-23T05:23:14.498Z,13.47
2023-05-23T05:25:17.316Z,12.10
2023-05-23T05:27:20.095Z,14.57
2023-05-23T05:29:23.908Z,9.83
2023-05-23T05:31:26.840Z,10.97
2023-05-23T05:33:29.650Z,11.47
2023-05-23T05:35:34.041Z,8.10
2023-05-23T05:37:36.782Z,10.67
2023-05-23T05:39:39.550Z,7.93
2023-05-23T05:41:42.621Z,9.93
2023-05-23T05:43:45.350Z,8.60
2023-05-23T05:45:48.126Z,10.23
2023-05-23T05:47:51.900Z,8.77
2023-05-23T05:49:54.691Z,8.30
2023-05-23T05:51:58.738Z,6.87
2023-05-23T05:54:01.504Z,7.67
2023-05-23T05:56:04.738Z,9.77
2023-05-23T05:58:07.521Z,8.47
2023-05-23T06:00:14.906Z,10.07
2023-05-23T06:02:17.993Z,7.27
2023-05-23T06:04:21.226Z,6.03
2023-05-23T06:06:24.045Z,6.87
2023-05-23T06:08:28.183Z,7.20
2023-05-23T06:10:30.966Z,8.00
2023-05-23T06:12:33.880Z,4.43
2023-05-23T06:14:36.674Z,5.37
2023-05-23T06:16:39.931Z,10.93
2023-05-23T06:18:43.057Z,6.87
2023-05-23T06:20:45.814Z,6.70
2023-05-23T06:22:48.710Z,7.83
2023-05-23T06:24:53.027Z,5.93
2023-05-23T06:26:55.850Z,6.27
2023-05-23T06:28:58.717Z,6.30
2023-05-23T06:31:01.532Z,7.17
2023-05-23T06:33:04.367Z,5.50
2023-05-23T06:35:08.169Z,7.23
2023-05-23T06:37:11.167Z,5.90
2023-05-23T06:39:13.960Z,7.67
2023-05-23T06:41:18.131Z,5.70
2023-05-23T06:43:20.890Z,5.87
2023-05-23T06:45:23.640Z,5.90
2023-05-23T06:47:26.666Z,6.43
2023-05-23T06:49:29.450Z,6.53
2023-05-23T06:51:32.411Z,8.10
2023-05-23T06:53:35.258Z,9.70
2023-05-23T06:55:37.993Z,6.40
2023-05-23T06:57:42.295Z,6.00
2023-05-23T06:59:45.115Z,8.73
2023-05-23T07:01:48.018Z,5.83
2023-05-23T07:03:50.885Z,6.77
2023-05-23T07:05:53.760Z,6.77
2023-05-23T07:07:56.716Z,5.87
2023-05-23T07:09:59.512Z,7.83
2023-05-23T07:12:02.291Z,7.23
2023-05-23T07:14:07.734Z,6.97
2023-05-23T07:16:10.626Z,6.77
2023-05-23T07:18:13.640Z,9.63
2023-05-23T07:20:16.792Z,6.50
2023-05-23T07:22:19.520Z,5.47
2023-05-23T07:24:24.494Z,6.20
2023-05-23T07:26:28.402Z,6.67
2023-05-23T07:28:31.204Z,7.70
2023-05-23T07:30:35.321Z,9.03
2023-05-23T07:32:38.164Z,5.50
2023-05-23T07:34:41.236Z,6.60
2023-05-23T07:36:44.050Z,9.77
2023-05-23T07:38:46.943Z,6.00
2023-05-23T07:40:58.697Z,5.10
2023-05-23T07:43:09.982Z,7.87
2023-05-23T07:45:23.081Z,5.47
2023-05-23T07:47:27.623Z,6.07
2023-05-23T07:49:33.126Z,8.97
2023-05-23T07:51:37.608Z,6.33
2023-05-23T07:53:43.389Z,5.43
2023-05-23T07:55:46.393Z,6.00
2023-05-23T07:57:49.575Z,8.70
2023-05-23T07:59:52.780Z,6.00
2023-05-23T08:01:55.642Z,7.23
2023-05-23T08:03:59.774Z,7.87
2023-05-23T08:06:02.533Z,6.57
2023-05-23T08:08:05.427Z,7.00
2023-05-23T08:10:09.358Z,8.57
2023-05-23T08:12:12.492Z,7.83
2023-05-23T08:14:15.386Z,8.77
2023-05-23T08:16:18.252Z,7.20
2023-05-23T08:18:21.501Z,12.00
2023-05-23T08:20:30.635Z,8.10
2023-05-23T08:22:33.524Z,8.37
2023-05-23T08:24:36.291Z,9.67
2023-05-23T08:26:39.113Z,7.47
2023-05-23T08:28:41.874Z,8.97
2023-05-23T08:30:44.697Z,10.80
2023-05-23T08:32:47.482Z,8.27
2023-05-23T08:34:50.444Z,8.93
2023-05-23T08:36:54.966Z,11.03
2023-05-23T08:38:57.777Z,7.27
2023-05-23T08:41:03.222Z,7.83
2023-05-23T08:43:06.201Z,7.17
2023-05-23T08:45:10.489Z,11.13
2023-05-23T08:47:17.563Z,7.77
2023-05-23T08:49:21.084Z,8.73
2023-05-23T08:51:26.396Z,8.03
2023-05-23T08:53:32.241Z,8.67
2023-05-23T08:55:35.213Z,8.37
2023-05-23T08:57:39.152Z,8.30
2023-05-23T08:59:42.651Z,7.27
2023-05-23T09:01:46.144Z,10.53
2023-05-23T09:03:50.216Z,10.37
2023-05-23T09:05:54.681Z,7.43
2023-05-23T09:07:57.654Z,6.63
2023-05-23T09:10:01.783Z,7.33
2023-05-23T09:12:04.682Z,9.93
2023-05-23T09:14:08.197Z,7.87
2023-05-23T09:16:12.741Z,8.13
2023-05-23T09:18:15.552Z,7.07
2023-05-23T09:20:19.178Z,7.53
2023-05-23T09:22:26.569Z,8.13
2023-05-23T09:24:35.515Z,7.63
2023-05-23T09:26:40.287Z,5.57
2023-05-23T09:28:44.163Z,8.80
2023-05-23T09:30:49.955Z,5.30
2023-05-23T09:33:05.639Z,10.40
2023-05-23T09:35:12.292Z,8.97
2023-05-23T09:37:19.053Z,8.37
2023-05-23T09:39:21.921Z,6.40
2023-05-23T09:41:25.115Z,6.83
2023-05-23T09:43:30.178Z,5.07
2023-05-23T09:45:34.244Z,6.43
2023-05-23T09:47:37.510Z,5.40
2023-05-23T09:49:40.523Z,5.73
2023-05-23T09:51:43.333Z,5.03
2023-05-23T09:53:46.180Z,7.13
2023-05-23T09:55:51.381Z,5.17
2023-05-23T09:57:56.753Z,4.83
2023-05-23T10:00:06.527Z,6.43
2023-05-23T10:02:12.364Z,4.10
2023-05-23T10:04:20.046Z,3.43
2023-05-23T10:06:26.968Z,4.77
2023-05-23T10:08:40.914Z,4.80
2023-05-23T10:11:34.165Z,5.10
2023-05-23T10:13:37.057Z,4.60
2023-05-23T10:15:42.564Z,5.30
2023-05-23T10:18:03.181Z,5.40
2023-05-23T10:20:12.409Z,5.97
2023-05-23T10:22:16.222Z,4.40
2023-05-23T10:24:20.660Z,4.97
2023-05-23T10:26:23.574Z,5.97
2023-05-23T10:28:27.196Z,4.90
2023-05-23T10:30:30.308Z,3.60
2023-05-23T10:32:35.831Z,3.93
2023-05-23T10:34:45.573Z,4.23
2023-05-23T10:36:58.042Z,3.67
2023-05-23T10:39:07.919Z,6.13
2023-05-23T10:41:13.669Z,3.67
2023-05-23T10:43:21.602Z,4.20
2023-05-23T10:45:25.502Z,5.23
2023-05-23T10:47:29.125Z,6.07
2023-05-23T10:49:47.604Z,4.57
2023-05-23T10:51:52.139Z,4.20
2023-05-23T10:53:55.790Z,3.80
2023-05-23T10:55:59.136Z,7.53
2023-05-23T10:58:12.467Z,4.63
2023-05-23T11:00:16.863Z,6.03
2023-05-23T11:02:21.306Z,5.83
2023-05-23T11:04:28.389Z,6.90
2023-05-23T11:06:35.480Z,5.10
2023-05-23T11:08:47.816Z,7.93
2023-05-23T11:10:56.110Z,9.07
2023-05-23T11:13:07.721Z,7.50
2023-05-23T11:15:22.658Z,9.57
2023-05-23T11:17:32.984Z,7.90
2023-05-23T11:19:35.898Z,10.10
2023-05-23T11:21:40.803Z,6.27
2023-05-23T11:23:44.190Z,11.10
2023-05-23T11:25:50.368Z,6.93
2023-05-23T11:27:54.147Z,7.73
2023-05-23T11:30:02.562Z,9.80
2023-05-23T11:32:16.988Z,8.23
2023-05-23T11:34:21.642Z,8.30
2023-05-23T11:36:24.611Z,5.53
2023-05-23T11:38:29.042Z,6.20
2023-05-23T11:40:33.249Z,4.83
2023-05-23T11:42:42.339Z,5.07
2023-05-23T11:44:46.075Z,4.70
2023-05-23T11:47:01.519Z,5.07
2023-05-23T11:49:04.336Z,5.80
2023-05-23T11:51:07.118Z,5.07
2023-05-23T11:53:09.897Z,3.87
2023-05-23T11:55:13.984Z,2.80
2023-05-23T11:57:16.752Z,2.70
2023-05-23T11:59:19.740Z,3.63
2023-05-23T12:01:22.504Z,2.90
2023-05-23T12:03:25.400Z,3.77
2023-05-23T12:05:30.048Z,1.50
2023-05-23T12:07:36.732Z,1.97
2023-05-23T12:09:46.592Z,1.80
2023-05-23T12:11:51.225Z,3.30
2023-05-23T12:13:54.328Z,2.10
2023-05-23T12:15:58.725Z,2.57
2023-05-23T12:18:02.594Z,1.83
2023-05-23T12:20:07.856Z,2.43
2023-05-23T12:22:10.726Z,2.00
2023-05-23T12:24:18.241Z,2.40
2023-05-23T12:26:22.193Z,4.33
2023-05-23T12:28:43.259Z,3.10
2023-05-23T12:30:46.122Z,3.17
2023-05-23T12:32:48.921Z,3.27
2023-05-23T12:34:51.768Z,3.80
2023-05-23T12:37:06.416Z,6.13
2023-05-23T12:39:25.731Z,3.00
2023-05-23T12:41:28.542Z,3.67
2023-05-23T12:43:31.279Z,3.60
2023-05-23T12:45:37.134Z,3.17
2023-05-23T12:47:40.026Z,2.97
2023-05-23T12:49:44.746Z,4.07
2023-05-23T12:51:48.050Z,4.50
2023-05-23T12:53:51.604Z,4.20
2023-05-23T12:55:54.362Z,7.07
2023-05-23T12:57:57.375Z,7.23
2023-05-23T13:00:00.178Z,8.53
2023-05-23T13:02:04.391Z,8.13
2023-05-23T13:04:07.204Z,10.80
2023-05-23T13:06:10.005Z,10.97
2023-05-23T13:08:13.219Z,11.70
2023-05-23T13:10:16.277Z,12.60
2023-05-23T13:12:19.426Z,10.00
2023-05-23T13:14:22.196Z,15.00
2023-05-23T13:16:25.002Z,13.23
2023-05-23T13:18:29.109Z,8.70
2023-05-23T13:20:31.880Z,12.43
2023-05-23T13:22:34.702Z,12.50
2023-05-23T13:24:37.718Z,10.70
2023-05-23T13:26:40.584Z,11.10
2023-05-23T13:28:44.664Z,13.03
2023-05-23T13:30:47.973Z,14.47
2023-05-23T13:32:52.061Z,16.73
2023-05-23T13:34:56.421Z,13.93
2023-05-23T13:36:59.190Z,13.67
2023-05-23T13:39:02.148Z,12.83
2023-05-23T13:41:04.981Z,11.80
2023-05-23T13:43:07.806Z,12.03
2023-05-23T13:45:11.031Z,11.27
2023-05-23T13:47:15.184Z,13.90
2023-05-23T13:49:17.955Z,12.63
2023-05-23T13:51:22.087Z,13.43
2023-05-23T13:53:24.821Z,16.50
2023-05-23T13:55:27.801Z,17.07
2023-05-23T13:57:30.616Z,16.83
2023-05-23T13:59:33.482Z,15.77
2023-05-23T14:01:36.313Z,15.90
2023-05-23T14:03:39.054Z,12.20
2023-05-23T14:05:41.907Z,12.93
2023-05-23T14:07:47.274Z,14.20
2023-05-23T14:09:50.437Z,15.13
2023-05-23T14:11:53.745Z,13.30
2023-05-23T14:13:59.279Z,11.73
2023-05-23T14:16:02.269Z,16.50
2023-05-23T14:18:05.621Z,14.80
2023-05-23T14:20:09.688Z,15.87
2023-05-23T14:22:12.569Z,15.33
2023-05-23T14:24:16.768Z,16.70
2023-05-23T14:26:19.583Z,13.60
2023-05-23T14:28:22.337Z,13.13
2023-05-23T14:30:25.149Z,12.97
2023-05-23T14:32:27.998Z,12.07
2023-05-23T14:34:30.878Z,14.87
2023-05-23T14:36:33.947Z,11.87
2023-05-23T14:38:39.006Z,13.33
2023-05-23T14:40:44.118Z,13.00
2023-05-23T14:42:47.377Z,10.07
2023-05-23T14:44:50.182Z,14.80
2023-05-23T14:46:52.948Z,18.23
2023-05-23T14:48:55.751Z,14.07
2023-05-23T14:51:01.552Z,12.00
2023-05-23T14:53:04.366Z,17.70
2023-05-23T14:55:08.231Z,15.40
2023-05-23T14:57:12.416Z,14.17
2023-05-23T14:59:16.874Z,21.77
2023-05-23T15:01:19.757Z,11.57
2023-05-23T15:03:22.597Z,16.90
2023-05-23T15:05:28.660Z,16.10
2023-05-23T15:07:32.351Z,14.07
2023-05-23T15:09:35.130Z,18.57
2023-05-23T15:11:38.940Z,11.83
2023-05-23T15:13:43.293Z,16.60
2023-05-23T15:15:46.486Z,15.00
2023-05-23T15:17:49.336Z,12.13
2023-05-23T15:19:52.871Z,20.17
2023-05-23T15:21:56.488Z,15.03
2023-05-23T15:23:59.930Z,15.60
2023-05-23T15:26:02.912Z,15.23
2023-05-23T15:28:05.803Z,16.07
2023-05-23T15:30:10.833Z,14.30
2023-05-23T15:32:13.713Z,19.00
2023-05-23T15:34:16.634Z,13.13
2023-05-23T15:36:19.412Z,13.80
2023-05-23T15:38:22.199Z,12.50
2023-05-23T15:40:24.973Z,11.00
2023-05-23T15:42:28.080Z,13.63
2023-05-23T15:44:30.853Z,13.03
2023-05-23T15:46:35.113Z,17.80
2023-05-23T15:48:37.948Z,15.23
2023-05-23T15:50:40.889Z,17.47
2023-05-23T15:52:43.856Z,12.23
2023-05-23T15:54:46.923Z,14.00
2023-05-23T15:56:49.829Z,12.53
2023-05-23T15:58:52.645Z,11.10
2023-05-23T16:00:55.427Z,12.90
2023-05-23T16:02:59.718Z,13.23
2023-05-23T16:05:02.618Z,12.60
2023-05-23T16:07:05.923Z,11.63
2023-05-23T16:09:08.791Z,11.63
2023-05-23T16:11:11.649Z,11.73
2023-05-23T16:15:17.227Z,10.80
2023-05-23T16:17:20.074Z,8.50
2023-05-23T16:19:24.202Z,11.73
2023-05-23T16:21:27.052Z,8.43
2023-05-23T16:23:29.778Z,11.77
2023-05-23T16:25:32.606Z,9.73
2023-05-23T16:27:35.646Z,12.17
2023-05-23T16:29:38.631Z,8.27
2023-05-23T16:31:41.481Z,14.33
2023-05-23T16:33:44.573Z,10.37
2023-05-23T16:35:48.891Z,10.27
2023-05-23T16:37:51.637Z,10.33
2023-05-23T16:39:54.747Z,10.17
2023-05-23T16:41:59.500Z,9.40
2023-05-23T16:44:03.201Z,9.33
2023-05-23T16:46:06.184Z,9.50
2023-05-23T16:48:08.977Z,14.80
2023-05-23T16:50:12.517Z,10.47
2023-05-23T16:52:16.696Z,8.40
2023-05-23T16:54:19.587Z,16.87
2023-05-23T16:56:22.985Z,10.70
2023-05-23T16:58:25.908Z,10.87
2023-05-23T17:00:28.711Z,15.77
2023-05-23T17:02:31.480Z,12.10
2023-05-23T17:04:35.048Z,8.70
2023-05-23T17:06:38.080Z,9.77
2023-05-23T17:08:42.299Z,9.77
2023-05-23T17:10:45.160Z,9.83
2023-05-23T17:12:47.948Z,13.90
2023-05-23T17:14:50.766Z,12.73
2023-05-23T17:16:53.574Z,7.20
2023-05-23T17:18:56.766Z,11.40
2023-05-23T17:20:59.559Z,14.83
2023-05-23T17:23:02.323Z,12.03
2023-05-23T17:25:07.403Z,8.70
2023-05-23T17:27:10.266Z,15.70
2023-05-23T17:29:13.003Z,12.73
2023-05-23T17:31:16.295Z,8.30
2023-05-23T17:33:19.107Z,12.10
2023-05-23T17:35:23.345Z,11.70
2023-05-23T17:37:26.830Z,10.70
2023-05-23T17:39:29.621Z,13.87
2023-05-23T17:41:33.982Z,8.30
2023-05-23T17:43:36.735Z,9.30
2023-05-23T17:45:39.465Z,9.47
2023-05-23T17:47:42.277Z,15.93
2023-05-23T17:49:45.237Z,13.57
2023-05-23T17:51:48.638Z,11.43
2023-05-23T17:53:53.373Z,19.73
2023-05-23T17:55:56.560Z,8.43
2023-05-23T17:58:01.141Z,11.87
2023-05-23T18:00:04.092Z,13.07
2023-05-23T18:02:07.924Z,12.23
2023-05-23T18:04:10.981Z,10.07
2023-05-23T18:06:13.949Z,8.83
2023-05-23T18:08:16.783Z,9.93
2023-05-23T18:10:19.618Z,14.57
2023-05-23T18:12:22.654Z,13.77
2023-05-23T18:14:26.812Z,9.07
2023-05-23T18:16:29.632Z,9.67
2023-05-23T18:18:32.521Z,12.33
2023-05-23T18:20:35.627Z,9.20
2023-05-23T18:22:41.152Z,12.50
2023-05-23T18:24:44.163Z,15.60
2023-05-23T18:26:46.898Z,12.73
2023-05-23T18:28:49.686Z,17.57
2023-05-23T18:30:53.774Z,15.00
2023-05-23T18:32:58.880Z,12.33
2023-05-23T18:35:01.900Z,11.60
2023-05-23T18:37:04.903Z,11.13
2023-05-23T18:39:07.881Z,14.87
2023-05-23T18:41:13.999Z,11.20
2023-05-23T18:43:17.789Z,9.07
2023-05-23T18:45:20.646Z,11.37
2023-05-23T18:47:24.768Z,10.63
2023-05-23T18:49:27.572Z,14.20
2023-05-23T18:51:30.377Z,15.10
2023-05-23T18:53:33.226Z,11.60
2023-05-23T18:55:37.363Z,11.90
2023-05-23T18:57:40.120Z,8.27
2023-05-23T18:59:42.979Z,13.93
2023-05-23T19:01:45.823Z,11.53
2023-05-23T19:03:50.038Z,11.63
2023-05-23T19:05:53.001Z,15.97
2023-05-23T19:07:55.772Z,9.70
2023-05-23T19:09:58.592Z,10.53
2023-05-23T19:12:01.336Z,7.63
2023-05-23T19:14:04.146Z,10.23
2023-05-23T19:16:07.301Z,15.73
2023-05-23T19:18:10.341Z,13.13
2023-05-23T19:20:18.285Z,12.40
2023-05-23T19:22:21.241Z,10.40
2023-05-23T19:24:24.072Z,13.03
2023-05-23T19:26:26.819Z,9.80
2023-05-23T19:28:29.643Z,11.87
2023-05-23T19:30:35.170Z,14.27
2023-05-23T19:32:38.004Z,12.43
2023-05-23T19:34:40.922Z,9.97
2023-05-23T19:36:45.212Z,8.57
2023-05-23T19:38:48.009Z,16.13
2023-05-23T19:40:51.192Z,19.53
2023-05-23T19:42:56.546Z,12.70
2023-05-23T19:44:59.337Z,10.77
2023-05-23T19:47:02.122Z,13.90
2023-05-23T19:49:05.868Z,15.53
2023-05-23T19:51:08.726Z,10.20
2023-05-23T19:53:12.788Z,12.97
2023-05-23T19:55:15.978Z,13.50
2023-05-23T19:57:18.736Z,9.20
2023-05-23T19:59:23.270Z,15.67
2023-05-23T20:01:27.422Z,11.40
2023-05-23T20:03:30.403Z,18.17
2023-05-23T20:05:33.198Z,9.93
2023-05-23T20:07:37.020Z,11.43
2023-05-23T20:09:41.328Z,16.03
2023-05-23T20:11:44.573Z,12.93
2023-05-23T20:13:47.342Z,14.03
2023-05-23T20:15:50.904Z,13.23
2023-05-23T20:17:53.681Z,13.40
2023-05-23T20:19:56.603Z,11.13
2023-05-23T20:21:59.356Z,17.60
2023-05-23T20:24:02.148Z,10.97
2023-05-23T20:26:07.599Z,12.80
2023-05-23T20:28:11.821Z,12.07
2023-05-23T20:30:15.088Z,12.73
2023-05-23T20:32:18.052Z,13.77
2023-05-23T20:34:20.973Z,12.80
2023-05-23T20:36:23.772Z,13.10
2023-05-23T20:38:26.571Z,13.03
2023-05-23T20:40:38.445Z,12.63
2023-05-23T20:42:45.028Z,12.73
2023-05-23T20:44:47.904Z,13.83
2023-05-23T20:46:50.808Z,17.63
2023-05-23T20:48:53.578Z,10.10
2023-05-23T20:50:57.249Z,12.80
2023-05-23T20:53:02.214Z,18.00
2023-05-23T20:55:06.152Z,11.47
2023-05-23T20:57:09.303Z,15.83
2023-05-23T20:59:13.521Z,10.87
2023-05-23T21:01:16.673Z,10.57
2023-05-23T21:03:19.788Z,13.23
2023-05-23T21:05:22.548Z,12.50
2023-05-23T21:07:25.349Z,13.50
2023-05-23T21:09:28.093Z,12.00
2023-05-23T21:11:31.029Z,11.37
2023-05-23T21:13:33.812Z,14.33
2023-05-23T21:15:37.949Z,15.37
2023-05-23T21:17:40.750Z,15.20
2023-05-23T21:19:43.531Z,11.73
2023-05-23T21:21:46.372Z,9.83
2023-05-23T21:23:49.148Z,10.60
2023-05-23T21:25:51.914Z,10.57
2023-05-23T21:27:54.708Z,16.57
2023-05-23T21:29:57.720Z,18.93
2023-05-23T21:32:01.810Z,13.30
2023-05-23T21:34:18.517Z,11.70
2023-05-23T21:36:25.701Z,12.73
2023-05-23T21:38:29.527Z,12.77
2023-05-23T21:40:32.352Z,11.67
2023-05-23T21:42:35.103Z,13.27
2023-05-23T21:44:38.887Z,12.67
2023-05-23T21:46:43.592Z,9.30
2023-05-23T21:48:47.778Z,11.87
2023-05-23T21:50:50.538Z,17.63
2023-05-23T21:52:53.340Z,10.57
2023-05-23T21:54:56.239Z,15.53
2023-05-23T21:56:59.020Z,16.03
2023-05-23T21:59:01.874Z,14.60
2023-05-23T22:01:04.645Z,9.73
2023-05-23T22:03:07.521Z,9.70
2023-05-23T22:05:13.133Z,13.50
2023-05-23T22:07:19.388Z,17.83
2023-05-23T22:09:22.159Z,12.43
2023-05-23T22:11:25.824Z,11.03
2023-05-23T22:13:28.644Z,15.93
2023-05-23T22:15:32.513Z,12.67
2023-05-23T22:17:35.424Z,10.97
2023-05-23T22:19:38.338Z,18.73
2023-05-23T22:21:42.508Z,18.40
2023-05-23T22:23:45.363Z,12.00
2023-05-23T22:25:48.721Z,13.93
2023-05-23T22:27:51.962Z,14.03
2023-05-23T22:29:54.700Z,13.33
2023-05-23T22:31:57.550Z,14.70
2023-05-23T22:34:00.367Z,14.47
2023-05-23T22:36:03.170Z,15.27
2023-05-23T22:38:07.312Z,7.63
2023-05-23T22:40:10.936Z,10.60
2023-05-23T22:42:13.756Z,13.67
2023-05-23T22:44:16.610Z,19.90
2023-05-23T22:46:19.564Z,12.93
2023-05-23T22:48:22.392Z,11.77
2023-05-23T22:50:27.015Z,17.70
2023-05-23T22:52:31.426Z,16.60
2023-05-23T22:54:35.782Z,13.50
2023-05-23T22:56:38.604Z,17.43
2023-05-23T22:58:41.356Z,11.07
2023-05-23T23:00:45.327Z,12.43
2023-05-23T23:02:48.246Z,15.40
2023-05-23T23:04:51.038Z,16.77
2023-05-23T23:06:54.755Z,17.73
2023-05-23T23:08:57.491Z,12.90
2023-05-23T23:11:01.613Z,15.93
2023-05-23T23:13:04.349Z,10.30
2023-05-23T23:15:08.765Z,13.03
2023-05-23T23:17:13.551Z,13.40
2023-05-23T23:19:16.756Z,16.97
2023-05-23T23:21:19.577Z,10.47
2023-05-23T23:23:22.373Z,11.67
2023-05-23T23:25:25.211Z,14.10
2023-05-23T23:27:30.881Z,15.40
2023-05-23T23:29:33.666Z,13.70
2023-05-23T23:31:36.484Z,12.20
2023-05-23T23:33:39.474Z,15.40
2023-05-23T23:35:45.272Z,12.27
2023-05-23T23:37:48.053Z,10.30
2023-05-23T23:39:51.011Z,8.93
2023-05-23T23:41:53.795Z,13.23
2023-05-23T23:43:57.940Z,11.10
2023-05-23T23:46:00.755Z,15.00
2023-05-23T23:48:03.673Z,13.00
2023-05-23T23:50:07.690Z,17.23
2023-05-23T23:52:10.512Z,14.17
2023-05-23T23:54:13.247Z,12.67
2023-05-23T23:56:16.015Z,12.23
2023-05-23T23:58:18.761Z,14.97
